Time;durP1;ratioP1;P1;durP2;ratioP2;P2;SDS_P1;SDS_P2;PMS_P1;PMS_P2;Temp;Humidity;BMP_temperature;BMP_pressure;BME280_temperature;BME280_humidity;BME280_pressure;Samples;Min_cycle;Max_cycle;Signal;HPM_P1;HPM_P2
2022/02/11 00:02:17;;;;;;;7.35;3.28;;;6.60;87.80;;;;;;5077211;28;20059;-69
2022/02/11 00:07:46;;;;;;;7.60;3.25;;;6.70;87.70;;;;;;5084596;28;20553;-69
2022/02/11 00:10:13;;;;;;;7.88;3.78;;;6.60;87.70;;;;;;5080912;28;20101;-71
2022/02/11 00:12:47;;;;;;;6.88;3.50;;;6.60;87.70;;;;;;5082489;28;20085;-71
2022/02/11 00:18:15;;;;;;;7.70;3.38;;;6.60;87.80;;;;;;5127403;27;20970;-71
2022/02/11 00:20:45;;;;;;;9.75;3.70;;;6.60;87.70;;;;;;5116782;27;20155;-70
2022/02/11 00:23:12;;;;;;;6.90;3.72;;;6.60;87.70;;;;;;5112881;27;20035;-71
2022/02/11 00:25:43;;;;;;;7.05;3.45;;;6.60;87.70;;;;;;5114030;27;20046;-70
2022/02/11 00:29:08;;;;;;;9.50;4.07;;;6.60;87.80;;;;;;5117994;27;20043;-70
2022/02/11 00:34:05;;;;;;;9.23;4.22;;;6.50;87.80;;;;;;5116776;27;20043;-69
2022/02/11 00:36:39;;;;;;;10.15;4.13;;;6.60;87.80;;;;;;5115619;27;20507;-69
2022/02/11 00:39:25;;;;;;;10.90;4.78;;;6.50;87.80;;;;;;5116580;27;20083;-71
2022/02/11 01:03:57;;;;;;;1.58;0.70;;;6.50;85.90;;;;;;5115030;27;20044;-71
2022/02/11 01:06:25;;;;;;;1.40;0.60;;;6.40;85.80;;;;;;5119527;27;20392;-70
2022/02/11 01:08:53;;;;;;;1.98;0.70;;;6.40;85.80;;;;;;5116869;27;20052;-71
2022/02/11 01:11:26;;;;;;;0.60;0.30;;;6.40;85.70;;;;;;5112355;27;20040;-71
2022/02/11 01:13:53;;;;;;;0.88;0.30;;;6.40;85.00;;;;;;5115985;27;20050;-71
2022/02/11 01:16:25;;;;;;;0.35;0.17;;;6.20;85.00;;;;;;5115462;27;20055;-71
2022/02/11 01:19:00;;;;;;;1.08;0.52;;;6.30;85.00;;;;;;5117103;27;20051;-70
2022/02/11 01:21:39;;;;;;;0.98;0.38;;;6.20;85.00;;;;;;5116818;27;20046;-70
2022/02/11 01:24:18;;;;;;;1.02;0.40;;;6.20;85.00;;;;;;5118720;27;20036;-69
2022/02/11 01:26:54;;;;;;;0.65;0.28;;;6.20;84.90;;;;;;5116454;27;20531;-70
2022/02/11 01:29:50;;;;;;;0.10;0.10;;;6.20;84.90;;;;;;5108582;27;20659;-71
2022/02/11 01:32:32;;;;;;;0.28;0.20;;;6.20;84.70;;;;;;5104615;27;20704;-70
2022/02/11 01:35:09;;;;;;;0.32;0.10;;;6.10;84.60;;;;;;5113779;27;20044;-71
2022/02/11 01:37:49;;;;;;;0.40;0.20;;;6.10;84.60;;;;;;5107535;27;20035;-70
2022/02/11 01:40:51;;;;;;;0.85;0.32;;;6.10;84.40;;;;;;5107538;27;20050;-69
2022/02/11 01:49:13;;;;;;;0.95;0.40;;;6.10;84.10;;;;;;5095344;27;20062;-71
2022/02/11 01:51:48;;;;;;;0.47;0.22;;;6.00;84.00;;;;;;5106586;27;20050;-69
2022/02/11 01:54:33;;;;;;;0.40;0.20;;;6.00;84.00;;;;;;5097422;27;20497;-71
2022/02/11 01:57:07;;;;;;;0.38;0.13;;;6.00;84.00;;;;;;5098093;27;20092;-71
2022/02/11 02:00:22;;;;;;;0.45;0.22;;;6.00;84.00;;;;;;5096397;27;20129;-71
2022/02/11 02:11:28;;;;;;;0.20;0.20;;;5.90;83.90;;;;;;5100093;27;20127;-70
2022/02/11 02:14:36;;;;;;;0.85;0.30;;;5.90;84.00;;;;;;5099056;27;20039;-69
2022/02/11 02:22:55;;;;;;;0.35;0.30;;;6.00;83.60;;;;;;5092494;27;20075;-70
2022/02/11 02:25:28;;;;;;;0.10;0.10;;;5.90;83.10;;;;;;5096475;27;20166;-69
2022/02/11 02:28:21;;;;;;;0.10;0.10;;;6.00;83.10;;;;;;5105843;27;20126;-70
2022/02/11 02:34:02;;;;;;;1.67;0.17;;;5.90;83.10;;;;;;5103656;27;20134;-70
2022/02/11 02:36:55;;;;;;;0.25;0.20;;;5.80;83.10;;;;;;5104503;27;20050;-73
2022/02/11 02:43:19;;;;;;;0.20;0.10;;;5.80;83.40;;;;;;5114706;27;20043;-69
2022/02/11 02:56:43;;;;;;;0.10;0.10;;;5.70;83.50;;;;;;5084987;27;20081;-71
2022/02/11 02:59:22;;;;;;;0.20;0.10;;;5.70;83.10;;;;;;5103254;27;20461;-68
2022/02/11 03:01:56;;;;;;;0.40;0.15;;;5.60;83.10;;;;;;5101437;27;20128;-71
2022/02/11 03:34:54;;;;;;;1.02;0.25;;;5.30;82.90;;;;;;5095459;27;20052;-70
2022/02/11 03:48:56;;;;;;;0.73;0.50;;;5.20;82.80;;;;;;5104363;27;20043;-68
2022/02/11 03:51:44;;;;;;;1.00;0.50;;;5.20;82.80;;;;;;5085358;27;20131;-69
2022/02/11 04:55:01;;;;;;;1.85;0.60;;;5.00;84.10;;;;;;5073390;28;20044;-71
2022/02/11 05:00:16;;;;;;;1.55;0.75;;;5.00;84.10;;;;;;5079116;28;20506;-69
2022/02/11 05:02:43;;;;;;;1.40;0.70;;;5.00;84.10;;;;;;5059208;28;20058;-69
2022/02/11 05:05:10;;;;;;;1.23;0.57;;;5.00;84.20;;;;;;5081951;28;20051;-69
2022/02/11 05:07:37;;;;;;;0.85;0.60;;;5.00;84.30;;;;;;5083965;28;20055;-71
2022/02/11 05:10:08;;;;;;;1.48;0.85;;;4.90;84.20;;;;;;5087568;28;20051;-72
2022/02/11 05:12:36;;;;;;;1.27;0.57;;;5.00;84.30;;;;;;5086233;28;20184;-70
2022/02/11 05:15:08;;;;;;;1.15;0.60;;;4.90;84.30;;;;;;5080810;28;20055;-70
2022/02/11 05:17:35;;;;;;;1.02;0.50;;;4.90;84.40;;;;;;5098806;27;20058;-70
2022/02/11 05:20:02;;;;;;;1.42;0.77;;;4.90;84.50;;;;;;5107015;27;20039;-69
2022/02/11 05:22:29;;;;;;;1.48;0.70;;;4.90;84.50;;;;;;5106088;27;20050;-70
2022/02/11 05:24:56;;;;;;;1.20;0.73;;;4.90;84.40;;;;;;5096650;27;20046;-70
2022/02/11 05:27:25;;;;;;;1.08;0.80;;;4.90;84.30;;;;;;5105688;27;20050;-68
2022/02/11 05:29:52;;;;;;;0.82;0.43;;;4.90;84.30;;;;;;5101212;27;20043;-69
2022/02/11 05:32:19;;;;;;;2.10;0.80;;;4.90;84.30;;;;;;5101135;27;20054;-70
2022/02/11 05:34:46;;;;;;;3.50;0.80;;;4.90;84.40;;;;;;5104810;27;20047;-69
2022/02/11 05:37:12;;;;;;;4.18;1.10;;;4.90;84.40;;;;;;5104923;27;20043;-69
2022/02/11 05:39:39;;;;;;;2.35;1.02;;;4.90;84.30;;;;;;5103798;27;20066;-70
2022/02/11 05:42:07;;;;;;;4.88;1.60;;;4.90;84.30;;;;;;5104085;27;20519;-69
2022/02/11 05:44:35;;;;;;;2.15;0.98;;;4.90;84.30;;;;;;5103353;27;20051;-70
2022/02/11 05:47:02;;;;;;;4.53;1.50;;;4.90;84.40;;;;;;5102106;27;20294;-69
2022/02/11 05:49:29;;;;;;;2.22;1.00;;;4.90;84.30;;;;;;5104596;27;20142;-70
2022/02/11 05:51:56;;;;;;;1.98;0.90;;;4.90;84.40;;;;;;5107014;27;20047;-69
2022/02/11 05:54:28;;;;;;;6.60;1.27;;;4.90;84.50;;;;;;5106096;27;20721;-69
2022/02/11 05:57:04;;;;;;;1.65;1.02;;;4.90;84.40;;;;;;5103479;27;20189;-70
2022/02/11 05:59:31;;;;;;;2.28;1.42;;;4.90;84.50;;;;;;5104759;27;20042;-69
2022/02/11 06:02:00;;;;;;;2.70;1.23;;;4.90;84.50;;;;;;5101986;27;20044;-69
2022/02/11 06:04:29;;;;;;;2.88;1.50;;;4.90;84.40;;;;;;5103983;27;20058;-70
2022/02/11 06:06:58;;;;;;;2.58;1.00;;;4.80;84.30;;;;;;5103549;27;20047;-70
2022/02/11 06:09:25;;;;;;;3.20;1.45;;;4.80;84.20;;;;;;5103535;27;20031;-70
2022/02/11 06:11:52;;;;;;;2.13;1.08;;;4.80;84.00;;;;;;5104285;27;20043;-71
2022/02/11 06:14:19;;;;;;;3.67;1.60;;;4.80;84.00;;;;;;5104115;27;20058;-70
2022/02/11 06:16:46;;;;;;;3.65;1.80;;;4.80;83.90;;;;;;5104995;27;20055;-70
2022/02/11 06:19:14;;;;;;;5.50;2.03;;;4.80;83.80;;;;;;5103925;27;20484;-71
2022/02/11 06:21:41;;;;;;;3.65;1.75;;;4.80;83.80;;;;;;5103576;27;20046;-69
2022/02/11 06:24:09;;;;;;;3.85;1.48;;;4.80;83.70;;;;;;5104416;27;20054;-69
2022/02/11 06:26:36;;;;;;;3.65;1.55;;;4.80;83.80;;;;;;5106556;27;20075;-69
2022/02/11 06:29:03;;;;;;;5.68;1.52;;;4.80;83.60;;;;;;5115278;27;20048;-69
2022/02/11 06:31:30;;;;;;;5.43;2.00;;;4.80;83.50;;;;;;5109399;27;20047;-69
2022/02/11 06:33:57;;;;;;;3.83;1.75;;;4.70;83.50;;;;;;5099119;27;20050;-70
2022/02/11 06:36:25;;;;;;;3.28;1.85;;;4.70;83.40;;;;;;5106700;27;20309;-70
2022/02/11 06:38:52;;;;;;;5.65;2.05;;;4.70;83.30;;;;;;5109646;27;20567;-70
2022/02/11 06:41:19;;;;;;;7.20;1.88;;;4.70;83.30;;;;;;5098816;27;20054;-70
2022/02/11 06:43:46;;;;;;;5.68;2.38;;;4.70;83.10;;;;;;5096734;27;20842;-69
2022/02/11 06:46:13;;;;;;;4.20;2.08;;;4.70;83.00;;;;;;5102751;27;20459;-69
2022/02/11 06:48:40;;;;;;;4.78;2.13;;;4.70;83.10;;;;;;5099672;27;20054;-70
2022/02/11 06:51:07;;;;;;;4.45;2.25;;;4.70;83.00;;;;;;5099559;27;20344;-71
2022/02/11 06:53:36;;;;;;;6.00;2.60;;;4.80;83.20;;;;;;5101950;27;20051;-70
2022/02/11 06:56:04;;;;;;;6.80;2.33;;;4.70;83.20;;;;;;5107368;27;20118;-70
2022/02/11 06:58:30;;;;;;;4.88;2.08;;;4.70;83.10;;;;;;5104109;27;20496;-70
2022/02/11 07:00:58;;;;;;;4.53;1.98;;;4.70;83.20;;;;;;5102119;27;20050;-70
2022/02/11 07:03:25;;;;;;;4.47;2.28;;;4.70;83.10;;;;;;5105298;27;20046;-69
2022/02/11 07:05:56;;;;;;;4.22;2.10;;;4.70;83.00;;;;;;5106580;27;20145;-70
2022/02/11 07:08:25;;;;;;;4.90;2.28;;;4.70;82.90;;;;;;5105206;27;20047;-70
2022/02/11 07:10:53;;;;;;;4.60;2.25;;;4.70;83.00;;;;;;5101136;27;20556;-71
2022/02/11 07:13:23;;;;;;;7.47;2.53;;;4.80;83.00;;;;;;5098220;27;20040;-70
2022/02/11 07:15:50;;;;;;;5.93;2.53;;;4.80;83.20;;;;;;5104275;27;20050;-71
2022/02/11 07:18:17;;;;;;;8.32;2.10;;;4.80;83.10;;;;;;5104041;27;20047;-71
2022/02/11 07:20:44;;;;;;;3.28;1.48;;;4.80;83.10;;;;;;5104922;27;22096;-70
2022/02/11 07:23:12;;;;;;;4.82;2.35;;;4.80;83.00;;;;;;5098581;27;20053;-70
2022/02/11 07:25:40;;;;;;;3.08;1.70;;;4.80;83.00;;;;;;5104435;27;20050;-71
2022/02/11 07:28:09;;;;;;;4.95;2.58;;;4.70;83.00;;;;;;5105529;27;20039;-71
2022/02/11 07:30:36;;;;;;;5.32;2.08;;;4.80;83.10;;;;;;5105745;27;20054;-71
2022/02/11 07:33:03;;;;;;;5.78;2.30;;;4.70;83.30;;;;;;5096791;27;20106;-71
2022/02/11 07:35:30;;;;;;;4.85;2.40;;;4.70;83.20;;;;;;5102689;27;20043;-71
2022/02/11 07:37:58;;;;;;;3.88;2.00;;;4.80;83.30;;;;;;5102690;27;20057;-72
2022/02/11 07:40:25;;;;;;;5.03;2.65;;;4.70;83.30;;;;;;5093700;27;20259;-70
2022/02/11 07:42:52;;;;;;;6.25;2.17;;;4.80;83.40;;;;;;5092086;27;20514;-69
2022/02/11 07:45:24;;;;;;;6.57;2.65;;;4.70;83.40;;;;;;5092414;27;20043;-69
2022/02/11 07:47:51;;;;;;;4.88;2.15;;;4.70;83.50;;;;;;5093506;27;20053;-71
2022/02/11 07:50:18;;;;;;;4.45;2.03;;;4.80;83.50;;;;;;5096321;27;20054;-70
2022/02/11 07:52:45;;;;;;;4.38;2.05;;;4.80;83.40;;;;;;5093302;27;20168;-70
2022/02/11 07:55:12;;;;;;;6.32;2.20;;;4.80;83.30;;;;;;5095773;27;20056;-71
2022/02/11 07:57:39;;;;;;;4.63;1.88;;;4.80;83.30;;;;;;5099647;27;20227;-70
2022/02/11 08:00:07;;;;;;;4.50;2.30;;;4.80;83.30;;;;;;5093853;27;20162;-68
2022/02/11 08:02:42;;;;;;;6.20;2.10;;;4.80;83.40;;;;;;5093777;27;20220;-70
2022/02/11 08:05:09;;;;;;;4.28;2.10;;;4.80;83.40;;;;;;5096683;27;20050;-70
2022/02/11 08:07:36;;;;;;;4.65;2.42;;;4.80;83.40;;;;;;5095025;28;20048;-70
2022/02/11 08:10:04;;;;;;;4.88;2.33;;;4.80;83.40;;;;;;5100273;28;20456;-70
2022/02/11 08:12:34;;;;;;;4.15;2.25;;;4.80;83.50;;;;;;5097325;27;20117;-71
2022/02/11 08:15:02;;;;;;;4.35;2.20;;;4.70;83.60;;;;;;5097649;27;20051;-71
2022/02/11 08:17:29;;;;;;;4.15;2.00;;;4.70;83.50;;;;;;5097723;28;20134;-71
2022/02/11 08:19:58;;;;;;;4.30;2.17;;;4.70;83.40;;;;;;5094388;28;20054;-72
2022/02/11 08:22:25;;;;;;;3.50;1.38;;;4.70;83.40;;;;;;5097410;28;20051;-70
2022/02/11 08:24:52;;;;;;;5.93;2.22;;;4.80;83.30;;;;;;5098019;28;20055;-71
2022/02/11 08:27:19;;;;;;;3.58;1.75;;;4.80;83.30;;;;;;5098413;28;20128;-71
2022/02/11 08:29:46;;;;;;;5.28;1.40;;;4.70;83.10;;;;;;5097480;28;20107;-72
2022/02/11 08:32:13;;;;;;;6.30;1.83;;;4.80;83.10;;;;;;5097570;27;20093;-70
2022/02/11 08:34:40;;;;;;;4.60;2.08;;;4.80;83.00;;;;;;5099430;28;20043;-70
2022/02/11 08:37:09;;;;;;;6.05;1.60;;;4.80;82.90;;;;;;5097817;27;20043;-71
2022/02/11 08:39:38;;;;;;;3.40;1.70;;;4.80;83.00;;;;;;5099743;27;20051;-69
2022/02/11 08:42:07;;;;;;;4.13;1.55;;;4.80;83.00;;;;;;5100127;27;20050;-70
2022/02/11 08:44:35;;;;;;;3.92;1.58;;;4.80;82.80;;;;;;5100988;27;20054;-69
2022/02/11 08:47:02;;;;;;;3.80;1.48;;;4.80;82.90;;;;;;5102080;27;20047;-71
2022/02/11 08:49:29;;;;;;;5.63;1.50;;;4.80;82.90;;;;;;5101434;27;20709;-71
2022/02/11 08:51:56;;;;;;;6.68;1.60;;;4.90;82.80;;;;;;5101868;27;20076;-70
2022/02/11 08:54:25;;;;;;;4.28;1.83;;;4.90;82.80;;;;;;5101626;27;20047;-71
2022/02/11 08:56:52;;;;;;;2.35;1.27;;;4.90;82.80;;;;;;5098625;27;20086;-70
2022/02/11 08:59:19;;;;;;;4.40;1.50;;;4.90;82.70;;;;;;5100290;27;20050;-70
2022/02/11 09:01:45;;;;;;;4.10;1.58;;;4.90;82.80;;;;;;5098702;27;20468;-67
2022/02/11 09:04:13;;;;;;;6.32;1.52;;;5.00;82.60;;;;;;5099747;27;20147;-66
2022/02/11 09:06:40;;;;;;;5.82;1.80;;;5.00;82.50;;;;;;5101220;27;20049;-67
2022/02/11 09:09:08;;;;;;;4.65;1.50;;;5.00;82.30;;;;;;5100358;27;20088;-69
2022/02/11 09:11:36;;;;;;;6.43;2.22;;;5.00;82.20;;;;;;5100832;27;20534;-68
2022/02/11 09:14:04;;;;;;;2.50;1.35;;;5.00;82.20;;;;;;5099315;27;20055;-66
2022/02/11 09:16:31;;;;;;;3.08;1.35;;;5.00;82.30;;;;;;5099707;27;20047;-67
2022/02/11 09:18:58;;;;;;;6.47;2.05;;;5.00;82.20;;;;;;5097302;27;20071;-66
2022/02/11 09:21:26;;;;;;;3.45;1.63;;;5.00;82.10;;;;;;5097081;27;20167;-66
2022/02/11 09:23:53;;;;;;;5.20;1.90;;;5.00;81.90;;;;;;5098640;27;20125;-66
2022/02/11 09:26:20;;;;;;;3.53;1.35;;;5.00;82.00;;;;;;5099252;27;20054;-66
2022/02/11 09:28:48;;;;;;;3.30;1.60;;;5.10;82.00;;;;;;5098794;27;21712;-67
2022/02/11 09:31:15;;;;;;;3.58;1.50;;;5.00;81.90;;;;;;5098837;27;20491;-66
2022/02/11 09:33:42;;;;;;;5.70;1.75;;;5.00;81.90;;;;;;5098305;27;20220;-67
2022/02/11 09:36:10;;;;;;;5.10;1.65;;;5.00;81.80;;;;;;5098341;27;20386;-66
2022/02/11 09:38:37;;;;;;;4.82;1.23;;;5.10;81.90;;;;;;5096716;27;20043;-69
2022/02/11 09:41:05;;;;;;;4.22;1.55;;;5.10;81.90;;;;;;5096265;27;20561;-67
2022/02/11 09:43:32;;;;;;;3.95;1.67;;;5.20;82.00;;;;;;5097124;27;20485;-66
2022/02/11 09:46:00;;;;;;;5.07;2.17;;;5.20;82.00;;;;;;5099437;27;20042;-67
2022/02/11 09:48:29;;;;;;;3.78;1.60;;;5.20;81.90;;;;;;5095144;27;20056;-66
2022/02/11 09:50:56;;;;;;;6.22;1.50;;;5.30;81.90;;;;;;5098167;27;20047;-67
2022/02/11 09:53:27;;;;;;;4.32;1.17;;;5.30;81.90;;;;;;5100123;27;20488;-66
2022/02/11 09:55:54;;;;;;;;;;;5.40;81.80;;;;;;5097359;27;20092;-67
2022/02/11 09:58:21;;;;;;;3.70;1.60;;;5.40;81.80;;;;;;5096847;27;19934;-67
2022/02/11 10:00:50;;;;;;;2.67;1.30;;;5.50;81.70;;;;;;5095795;27;20043;-67
2022/02/11 10:03:21;;;;;;;3.47;1.60;;;5.50;81.80;;;;;;5099976;27;20162;-69
2022/02/11 10:05:49;;;;;;;5.32;1.67;;;5.50;81.80;;;;;;5100582;27;20035;-67
2022/02/11 10:08:23;;;;;;;5.82;1.80;;;5.50;81.90;;;;;;5100072;27;20054;-67
2022/02/11 10:10:52;;;;;;;3.25;1.60;;;5.60;81.70;;;;;;5101225;27;20613;-68
2022/02/11 10:13:24;;;;;;;2.60;1.42;;;5.60;81.90;;;;;;5098076;27;20047;-67
2022/02/11 10:15:55;;;;;;;5.15;1.60;;;5.70;81.80;;;;;;5101617;27;20518;-67
2022/02/11 10:18:28;;;;;;;6.57;1.83;;;5.70;81.60;;;;;;5099561;27;20112;-67
2022/02/11 10:20:57;;;;;;;4.40;1.60;;;5.70;81.50;;;;;;5097414;27;20035;-66
2022/02/11 10:23:26;;;;;;;2.83;1.25;;;5.70;81.60;;;;;;5098276;27;20118;-66
2022/02/11 10:26:07;;;;;;;3.17;1.38;;;5.70;81.50;;;;;;5098896;27;20070;-68
2022/02/11 10:28:36;;;;;;;3.13;1.30;;;5.70;81.40;;;;;;5099020;27;20122;-67
2022/02/11 10:31:09;;;;;;;5.57;1.67;;;5.70;81.40;;;;;;5099134;27;20035;-67
2022/02/11 10:34:06;;;;;;;3.63;1.30;;;5.70;81.50;;;;;;5100188;27;21523;-67
2022/02/11 10:36:36;;;;;;;5.32;1.60;;;5.70;81.60;;;;;;5069837;27;20056;-66
2022/02/11 10:39:14;;;;;;;5.78;2.20;;;5.70;81.60;;;;;;5101902;27;20043;-66
2022/02/11 10:41:43;;;;;;;6.18;1.52;;;5.70;81.70;;;;;;5100071;27;20118;-68
2022/02/11 10:44:12;;;;;;;3.40;1.40;;;5.70;81.80;;;;;;5099489;27;20458;-66
2022/02/11 10:46:42;;;;;;;2.10;1.02;;;5.70;81.90;;;;;;5097623;27;20054;-66
2022/02/11 10:49:11;;;;;;;4.28;1.75;;;5.70;81.90;;;;;;5100702;27;20129;-66
2022/02/11 10:51:40;;;;;;;6.97;1.95;;;5.70;82.00;;;;;;5097355;27;20549;-66
2022/02/11 10:54:24;;;;;;;5.25;1.88;;;5.70;82.10;;;;;;5096391;27;20039;-66
2022/02/11 10:56:52;;;;;;;4.80;1.45;;;5.70;82.10;;;;;;5095737;27;20036;-67
2022/02/11 10:59:27;;;;;;;5.55;3.13;;;5.70;82.30;;;;;;5097899;27;20047;-66
2022/02/11 11:01:55;;;;;;;4.03;1.30;;;5.70;82.50;;;;;;5094659;27;20032;-66
2022/02/11 11:04:24;;;;;;;3.72;1.52;;;5.70;82.60;;;;;;5094972;27;20043;-67
2022/02/11 11:06:51;;;;;;;2.13;1.08;;;5.70;82.80;;;;;;5098121;27;20122;-66
2022/02/11 11:09:19;;;;;;;4.72;0.98;;;5.70;82.80;;;;;;5096551;27;20533;-69
2022/02/11 11:11:46;;;;;;;5.50;1.40;;;5.70;82.80;;;;;;5098583;27;20124;-66
2022/02/11 11:14:15;;;;;;;4.30;1.60;;;5.80;82.80;;;;;;5096043;27;20051;-67
2022/02/11 11:16:43;;;;;;;4.07;1.35;;;5.80;82.90;;;;;;5097326;27;20062;-69
2022/02/11 11:19:10;;;;;;;4.15;1.10;;;5.80;82.60;;;;;;5094838;27;20263;-66
2022/02/11 11:21:43;;;;;;;5.50;1.55;;;5.90;82.40;;;;;;5097524;27;20256;-67
2022/02/11 11:24:11;;;;;;;4.72;1.35;;;5.90;82.40;;;;;;5095268;27;20809;-67
2022/02/11 11:26:40;;;;;;;3.88;1.52;;;5.90;82.50;;;;;;5094719;27;20043;-67
2022/02/11 11:29:10;;;;;;;3.70;1.33;;;5.90;82.20;;;;;;5095363;27;20775;-68
2022/02/11 11:31:38;;;;;;;6.43;1.85;;;5.90;82.00;;;;;;5100074;27;20042;-67
2022/02/11 11:34:25;;;;;;;5.53;1.17;;;5.90;82.10;;;;;;5098091;27;20083;-67
2022/02/11 11:36:56;;;;;;;3.40;1.05;;;5.90;81.90;;;;;;5097651;27;20392;-67
2022/02/11 11:39:23;;;;;;;2.38;0.82;;;6.00;81.70;;;;;;5100400;27;20039;-69
2022/02/11 11:42:06;;;;;;;3.30;1.45;;;6.00;81.70;;;;;;5104030;27;20484;-68
2022/02/11 11:44:43;;;;;;;5.75;1.45;;;6.10;81.20;;;;;;5102272;27;20047;-66
2022/02/11 11:47:13;;;;;;;5.10;1.25;;;6.10;81.00;;;;;;5096877;27;20045;-66
2022/02/11 11:49:41;;;;;;;3.80;0.80;;;6.10;80.70;;;;;;5098912;27;20570;-68
2022/02/11 11:52:11;;;;;;;2.40;1.10;;;6.10;80.50;;;;;;5097036;27;20047;-68
2022/02/11 11:54:39;;;;;;;4.77;1.10;;;6.20;80.40;;;;;;5099083;27;20062;-68
2022/02/11 11:57:07;;;;;;;2.75;1.08;;;6.20;80.50;;;;;;5098396;27;20500;-66
2022/02/11 11:59:38;;;;;;;1.63;0.80;;;6.10;80.20;;;;;;5097116;27;20117;-66
2022/02/11 12:02:06;;;;;;;;;;;6.10;80.10;;;;;;5095671;27;20043;-66
2022/02/11 12:04:34;;;;;;;1.65;0.43;;;6.20;79.90;;;;;;5097638;27;20459;-66
2022/02/11 12:07:03;;;;;;;3.15;1.23;;;6.10;79.60;;;;;;5097197;27;20112;-67
2022/02/11 12:09:32;;;;;;;4.75;1.30;;;6.10;79.70;;;;;;5094242;27;20050;-67
2022/02/11 12:12:01;;;;;;;2.47;1.08;;;6.10;79.80;;;;;;5095141;27;20557;-68
2022/02/11 12:14:31;;;;;;;3.20;0.98;;;6.20;80.00;;;;;;5096229;27;20410;-66
2022/02/11 12:17:00;;;;;;;1.80;0.60;;;6.10;79.80;;;;;;5097685;28;20493;-66
2022/02/11 12:19:29;;;;;;;4.80;0.82;;;6.20;79.80;;;;;;5098266;28;20350;-67
2022/02/11 12:21:57;;;;;;;5.25;1.13;;;6.20;79.80;;;;;;5096901;28;20170;-67
2022/02/11 12:27:24;;;;;;;2.80;0.80;;;6.30;79.70;;;;;;5098409;28;20040;-68
2022/02/11 12:29:53;;;;;;;2.60;1.13;;;6.30;79.50;;;;;;5095961;28;20605;-68
2022/02/11 12:32:21;;;;;;;1.63;0.73;;;6.40;79.20;;;;;;5096922;28;20062;-68
2022/02/11 12:34:54;;;;;;;3.83;1.17;;;6.40;78.80;;;;;;5096358;28;20484;-68
2022/02/11 12:37:21;;;;;;;1.70;0.60;;;6.50;78.10;;;;;;5093807;27;20036;-68
2022/02/11 12:39:49;;;;;;;2.08;0.70;;;6.50;77.20;;;;;;5094466;27;20101;-69
2022/02/11 12:42:25;;;;;;;5.30;1.35;;;6.40;76.40;;;;;;5093118;28;20092;-67
2022/02/11 12:44:53;;;;;;;3.97;1.10;;;6.50;76.30;;;;;;5095665;27;20055;-68
2022/02/11 12:47:20;;;;;;;4.88;1.38;;;6.50;76.20;;;;;;5092070;28;20044;-66
2022/02/11 12:49:51;;;;;;;3.70;1.27;;;6.50;76.10;;;;;;5094407;28;20047;-69
2022/02/11 12:52:23;;;;;;;3.22;0.70;;;6.40;75.20;;;;;;5093963;27;20052;-67
2022/02/11 12:55:01;;;;;;;6.43;0.90;;;6.50;75.10;;;;;;5093419;28;20035;-67
2022/02/11 12:57:32;;;;;;;2.95;0.98;;;6.50;74.30;;;;;;5094699;28;20070;-69
2022/02/11 13:00:00;;;;;;;2.83;0.85;;;6.50;73.80;;;;;;5094006;28;20582;-69
2022/02/11 13:02:29;;;;;;;3.33;0.70;;;6.50;73.60;;;;;;5093821;28;20040;-67
2022/02/11 13:05:10;;;;;;;1.90;0.80;;;6.40;73.50;;;;;;5094317;28;20669;-68
2022/02/11 13:07:38;;;;;;;8.07;1.48;;;6.40;73.10;;;;;;5094295;28;20039;-68
2022/02/11 13:10:07;;;;;;;6.43;1.60;;;6.50;73.30;;;;;;5096662;28;21612;-66
2022/02/11 13:12:42;;;;;;;2.25;0.90;;;6.40;73.30;;;;;;5098250;28;20760;-67
2022/02/11 13:15:11;;;;;;;7.05;1.40;;;6.40;73.10;;;;;;5096305;27;20054;-68
2022/02/11 13:17:39;;;;;;;2.50;0.82;;;6.50;73.10;;;;;;5098984;28;20058;-67
2022/02/11 13:20:15;;;;;;;4.75;1.10;;;6.40;72.90;;;;;;5096937;28;20088;-67
2022/02/11 13:22:45;;;;;;;1.95;0.52;;;6.50;73.30;;;;;;5096459;28;20501;-67
2022/02/11 13:25:13;;;;;;;1.70;0.55;;;6.50;73.20;;;;;;5092048;27;20283;-66
2022/02/11 13:27:47;;;;;;;3.03;0.90;;;6.50;73.30;;;;;;5099933;27;20047;-68
2022/02/11 13:30:16;;;;;;;3.25;0.85;;;6.60;73.30;;;;;;5097906;27;20269;-67
2022/02/11 13:32:43;;;;;;;8.45;1.02;;;6.60;73.10;;;;;;5100627;27;20047;-68
2022/02/11 13:35:11;;;;;;;2.83;0.95;;;6.60;72.50;;;;;;5098919;27;20047;-68
2022/02/11 13:37:43;;;;;;;1.83;0.80;;;6.60;72.70;;;;;;5099452;27;20043;-68
2022/02/11 13:40:15;;;;;;;5.72;1.10;;;6.60;72.40;;;;;;5100096;27;20039;-68
2022/02/11 13:42:52;;;;;;;2.55;1.20;;;6.60;72.10;;;;;;5096906;27;20394;-67
2022/02/11 13:45:21;;;;;;;2.75;1.10;;;6.50;72.20;;;;;;5100803;27;20075;-67
2022/02/11 13:48:06;;;;;;;4.07;1.13;;;6.50;72.10;;;;;;5099430;27;20508;-68
2022/02/11 13:50:53;;;;;;;4.50;0.90;;;6.50;72.30;;;;;;5101864;27;20140;-67
2022/02/11 13:53:28;;;;;;;3.47;1.10;;;6.60;72.40;;;;;;5098274;27;20047;-68
2022/02/11 13:55:55;;;;;;;2.55;0.73;;;6.60;72.50;;;;;;5099089;27;20050;-68
2022/02/11 13:58:22;;;;;;;2.13;0.90;;;6.60;72.10;;;;;;5098738;27;20122;-69
2022/02/11 14:00:50;;;;;;;6.78;1.48;;;6.60;72.50;;;;;;5095763;27;20047;-68
2022/02/11 14:03:25;;;;;;;4.80;1.33;;;6.70;72.40;;;;;;5100850;27;20035;-68
2022/02/11 14:05:55;;;;;;;2.60;0.98;;;6.70;72.20;;;;;;5098349;27;20048;-68
2022/02/11 14:08:23;;;;;;;2.25;0.82;;;6.70;72.20;;;;;;5101592;27;20507;-68
2022/02/11 14:11:12;;;;;;;2.78;0.63;;;6.70;72.40;;;;;;5096418;27;20089;-69
2022/02/11 14:13:39;;;;;;;6.07;1.00;;;6.80;72.50;;;;;;5096494;27;20047;-68
2022/02/11 14:16:08;;;;;;;3.78;0.80;;;6.80;72.10;;;;;;5095827;27;20481;-68
2022/02/11 14:18:35;;;;;;;2.53;0.73;;;6.90;72.30;;;;;;5098011;27;20040;-68
2022/02/11 14:21:02;;;;;;;2.67;0.88;;;6.90;72.40;;;;;;5097643;27;20043;-67
2022/02/11 14:23:30;;;;;;;5.93;0.60;;;6.90;72.50;;;;;;5096051;27;20142;-68
2022/02/11 14:25:57;;;;;;;11.38;2.00;;;6.90;72.90;;;;;;5098811;27;20065;-68
2022/02/11 14:28:26;;;;;;;6.78;0.80;;;6.90;72.80;;;;;;5104190;27;20221;-68
2022/02/11 14:30:54;;;;;;;3.17;0.77;;;6.90;72.00;;;;;;5106509;27;20450;-68
2022/02/11 14:33:23;;;;;;;5.53;0.80;;;6.90;72.20;;;;;;5104100;27;20062;-68
2022/02/11 14:35:50;;;;;;;6.15;0.70;;;6.90;72.20;;;;;;5105992;27;20039;-68
2022/02/11 14:38:17;;;;;;;6.88;1.17;;;6.90;72.20;;;;;;5105303;27;20043;-67
2022/02/11 14:43:26;;;;;;;3.03;0.85;;;6.80;71.70;;;;;;5104938;27;20047;-67
2022/02/11 14:45:54;;;;;;;1.48;0.55;;;6.80;70.90;;;;;;5104651;27;20060;-67
2022/02/11 14:48:23;;;;;;;5.18;0.80;;;6.70;70.10;;;;;;5105782;27;20060;-68
2022/02/11 14:50:50;;;;;;;3.22;0.70;;;6.70;70.70;;;;;;5105322;27;20225;-69
2022/02/11 14:53:17;;;;;;;4.95;0.80;;;6.70;70.60;;;;;;5110262;27;20047;-66
2022/02/11 14:55:43;;;;;;;3.90;0.80;;;6.70;70.30;;;;;;5098107;27;20132;-66
2022/02/11 14:58:10;;;;;;;7.60;0.90;;;6.60;70.10;;;;;;5103094;27;20039;-68
2022/02/11 15:00:37;;;;;;;7.68;1.55;;;6.70;70.60;;;;;;5103788;27;20071;-66
2022/02/11 15:03:05;;;;;;;2.90;0.70;;;6.70;70.70;;;;;;5102180;27;20118;-68
2022/02/11 15:05:34;;;;;;;7.28;1.52;;;6.70;71.10;;;;;;5102985;27;20559;-67
2022/02/11 15:08:01;;;;;;;2.97;1.05;;;6.60;70.80;;;;;;5104914;27;20040;-67
2022/02/11 15:10:29;;;;;;;5.72;1.00;;;6.60;70.80;;;;;;5105915;27;20628;-68
2022/02/11 15:12:55;;;;;;;4.25;0.85;;;6.60;70.80;;;;;;5120418;27;20519;-67
2022/02/11 15:15:23;;;;;;;2.28;0.60;;;6.60;70.60;;;;;;5106279;27;20042;-70
2022/02/11 15:17:50;;;;;;;5.28;1.85;;;6.70;70.30;;;;;;5106109;27;20174;-68
2022/02/11 15:20:17;;;;;;;5.90;1.35;;;6.70;70.20;;;;;;5105821;27;20132;-69
2022/02/11 15:22:45;;;;;;;1.35;0.57;;;6.70;69.90;;;;;;5106076;27;20065;-68
2022/02/11 15:25:12;;;;;;;3.03;0.80;;;6.70;69.20;;;;;;5105242;27;20043;-68
2022/02/11 15:27:39;;;;;;;1.23;0.52;;;6.70;69.10;;;;;;5106199;27;20043;-68
2022/02/11 15:30:08;;;;;;;2.92;0.88;;;6.70;69.10;;;;;;5105338;27;20056;-68
2022/02/11 15:32:35;;;;;;;4.03;0.50;;;6.70;68.50;;;;;;5099489;27;20070;-67
2022/02/11 15:35:02;;;;;;;5.10;0.60;;;6.70;68.40;;;;;;5098776;27;20070;-67
2022/02/11 15:37:29;;;;;;;1.75;0.60;;;6.70;68.20;;;;;;5104668;27;20043;-68
2022/02/11 15:39:57;;;;;;;1.75;0.65;;;6.70;67.70;;;;;;5104903;27;20135;-67
2022/02/11 15:42:24;;;;;;;2.35;1.15;;;6.70;67.10;;;;;;5102873;27;20595;-66
2022/02/11 15:44:51;;;;;;;2.55;0.80;;;6.60;66.80;;;;;;5104928;27;20251;-66
2022/02/11 15:47:18;;;;;;;6.95;1.60;;;6.60;66.90;;;;;;5104408;27;20521;-67
2022/02/11 15:49:45;;;;;;;4.47;0.73;;;6.60;66.60;;;;;;5106359;27;20049;-67
2022/02/11 15:52:12;;;;;;;2.95;0.88;;;6.60;67.10;;;;;;5105576;27;20417;-68
2022/02/11 15:54:39;;;;;;;1.42;0.40;;;6.60;66.80;;;;;;5099892;27;20068;-67
2022/02/11 15:57:08;;;;;;;2.45;0.50;;;6.60;67.00;;;;;;5098648;27;20038;-66
2022/02/11 15:59:35;;;;;;;4.15;0.43;;;6.60;66.80;;;;;;5095670;27;21630;-66
2022/02/11 16:02:02;;;;;;;2.65;0.40;;;6.60;67.00;;;;;;5099945;27;20043;-68
2022/02/11 16:04:32;;;;;;;2.88;0.85;;;6.60;67.60;;;;;;5103071;27;20043;-66
2022/02/11 16:06:59;;;;;;;2.67;0.70;;;6.60;68.00;;;;;;5104237;27;20059;-68
2022/02/11 16:09:26;;;;;;;1.85;0.73;;;6.50;68.00;;;;;;5104527;27;20043;-67
2022/02/11 16:11:55;;;;;;;1.35;0.47;;;6.60;68.00;;;;;;5103162;27;20056;-67
2022/02/11 16:14:24;;;;;;;2.08;0.65;;;6.50;68.00;;;;;;5103190;27;20079;-68